x

Sand Key, Fl (sanf1) Weather Station

5:50am - Thu 28th May 2015 All times are CDT. -4 hours from GMT.

  • Wind
    21mph, 25mph gusts
  • Air Temp 80°f
  • Sea Pressure 1016.7mb
  • Sand Key, Fl
  • Sand Key, Fl

More Historic Weather Station data

Upgrade to MSW Pro to gain access to the past 30 days of data for over 8000 Wavebouys and Weather Stations around the globe.

Join Pro

Comparision Forecast

View Surf forecast
   
Thu 05/28 5:50am 21 25 mph 1016.7mb 80f
4:50am 22 25 mph 1016.3mb 80f
3:50am 21 24 mph 1016.2mb 80f
2:50am 20 23 mph 1016.5mb 80f
1:50am 22 25 mph 1017mb 80f
12:50am 20 22 mph 1017.8mb 81f
Wed 05/27 11:50pm 21 23 mph 1018mb 81f
10:50pm 21 24 mph 1018mb 81f
9:50pm 22 25 mph 1017.9mb 81f
8:50pm 21 24 mph 1017.6mb 81f
7:50pm 22 25 mph 1017.3mb 81f
6:50pm 20 22 mph 1017.3mb 81f
5:50pm 17 20 mph 1017.4mb 81f
4:50pm 17 22 mph 1017.6mb 81f
3:50pm 18 22 mph 1017.5mb 81f
2:50pm 16 18 mph 1018.4mb 81f
1:50pm 17 20 mph 1019.1mb 81f
12:50pm 13 16 mph 1019.5mb 81f
11:50am 16 17 mph 1019.5mb 81f
10:50am 17 20 mph 1019.3mb 81f
9:50am 21 23 mph 1019.1mb 81f
8:50am 20 23 mph 1019.2mb 81f
7:50am 21 23 mph 1018.9mb 81f
6:50am 23 26 mph 1018.1mb 80f
5:50am 22 24 mph 1018mb 80f
4:50am 24 28 mph 1017.8mb 80f
3:50am 24 28 mph 1017.9mb 81f
2:50am 21 24 mph 1018.6mb 81f
1:50am 25 30 mph 1019.3mb 80f
12:50am 22 26 mph 1019.7mb 81f
Tue 05/26 11:50pm 20 23 mph 1019.7mb 82f
10:50pm 20 22 mph 1019.6mb 82f
9:50pm 21 23 mph 1019.1mb 82f
8:50pm 20 22 mph 1018.6mb 82f
7:50pm 22 24 mph 1018.2mb 81f
6:50pm 22 24 mph 1018mb 81f
5:50pm 21 24 mph 1018.2mb 82f
4:50pm 21 24 mph 1018.6mb 82f
3:50pm 20 22 mph 1019.2mb 82f
2:50pm 20 23 mph 1019.8mb 82f
1:50pm 21 23 mph 1020.2mb 82f
12:50pm 22 25 mph 1020.6mb 82f
11:50am 21 23 mph 1021mb 82f
10:50am 21 23 mph 1020.7mb 82f
9:50am 18 23 mph 1020.7mb 82f
8:50am 21 23 mph 1020.4mb 82f
7:50am 21 24 mph 1019.8mb 82f
6:50am 22 25 mph 1019.3mb 82f
5:50am 21 24 mph 1018.6mb 81f
4:50am 22 24 mph 1018.2mb 82f
3:50am 22 25 mph 1017.9mb 82f
2:50am 23 26 mph 1018.2mb 82f
1:50am 23 26 mph 1018.6mb 82f
12:50am 23 25 mph 1019.2mb 82f
Mon 05/25 11:50pm 23 25 mph 1019.7mb 82f
10:50pm 23 26 mph 1019.5mb 82f
9:50pm 23 26 mph 1019.4mb 82f
8:50pm 23 26 mph 1019.2mb 82f
7:50pm 22 25 mph 1018.7mb 82f
6:50pm 22 26 mph 1018.3mb 82f
5:50pm 21 24 mph 1018.2mb 81f
4:50pm 22 26 mph 1018.7mb 81f
3:50pm 18 22 mph 1019mb 82f
2:50pm 17 18 mph 1019.4mb 82f
1:50pm 17 21 mph 1020mb 80f
12:50pm 14 16 mph 1020.3mb 78f
11:50am 21 26 mph 1020mb 82f
10:50am 18 21 mph 1020mb 82f
9:50am 17 21 mph 1019.8mb 81f
8:50am 17 20 mph 1019.6mb 82f
7:50am 18 26 mph 1019.5mb 78f
6:50am 15 17 mph 1018.7mb 81f
5:50am 18 22 mph 1018.3mb 81f
4:50am 17 20 mph 1018.1mb 81f
3:50am 17 20 mph 1018.5mb 81f
2:50am 20 23 mph 1018.6mb 81f
1:50am 21 23 mph 1019mb 81f
12:50am 20 22 mph 1019.6mb 82f
Sun 05/24 11:50pm 23 28 mph 1019.7mb 82f
10:50pm 23 26 mph 1019.6mb 82f
9:50pm 21 24 mph 1019.2mb 82f
8:50pm 22 25 mph 1018.6mb 82f
7:50pm 20 22 mph 1018.3mb 82f
6:50pm 22 25 mph 1018mb 82f
5:50pm 22 23 mph 1018.3mb 82f
4:50pm 20 22 mph 1018.3mb 82f
3:50pm 21 23 mph 1018.8mb 82f
2:50pm 20 21 mph 1019.5mb 82f
1:50pm 20 22 mph 1019.7mb 82f
12:50pm 18 22 mph 1020.3mb 82f
11:50am 20 22 mph 1020.4mb 82f